createdAt,value
2023-10-21T00:08:45.867Z,90.4
2023-10-21T00:14:39.081Z,90.3
2023-10-21T00:24:39.094Z,90.5
2023-10-21T00:34:45.875Z,90.5
2023-10-21T00:40:39.120Z,90.3
2023-10-21T00:45:46.059Z,90.6
2023-10-21T00:50:45.952Z,89.7
2023-10-21T00:56:39.009Z,89.6
2023-10-21T01:01:39.115Z,89.2
2023-10-21T01:06:46.112Z,88.6
2023-10-21T01:12:39.111Z,88.8
2023-10-21T01:17:45.707Z,89
2023-10-21T01:22:45.915Z,89.4
2023-10-21T01:28:39.148Z,89.4
2023-10-21T01:33:46.256Z,89.7
2023-10-21T01:39:39.314Z,89.7
2023-10-21T01:44:45.911Z,88.9
2023-10-21T01:49:45.852Z,88.5
2023-10-21T01:55:39.266Z,88.8
2023-10-21T02:00:39.334Z,89
2023-10-21T02:05:45.872Z,89.7
2023-10-21T02:10:45.854Z,89.8
2023-10-21T02:15:46.081Z,89
2023-10-21T02:21:39.253Z,89.4
2023-10-21T02:26:41.808Z,90.4
2023-10-21T02:31:45.795Z,90.5
2023-10-21T02:36:45.906Z,88.6
2023-10-21T02:42:39.255Z,88
2023-10-21T02:47:39.395Z,88.6
2023-10-21T02:52:45.854Z,88.5
2023-10-21T02:57:45.850Z,88.3
2023-10-21T03:02:46.111Z,88
2023-10-21T03:07:45.911Z,87.2
2023-10-21T03:13:39.271Z,87.7
2023-10-21T03:18:39.355Z,88.5
2023-10-21T03:23:45.726Z,88.6
2023-10-21T03:28:45.927Z,89.5
2023-10-21T03:33:45.922Z,89
2023-10-21T03:39:39.295Z,88.8
2023-10-21T03:44:39.338Z,88.2
2023-10-21T03:49:45.868Z,89.1
2023-10-21T03:54:45.868Z,88.6
2023-10-21T03:59:45.930Z,89.1
2023-10-21T04:04:45.936Z,89.3
2023-10-21T04:09:46.057Z,89.5
2023-10-21T04:15:41.162Z,89.3
2023-10-21T04:20:39.375Z,88.9
2023-10-21T04:25:45.658Z,89
2023-10-21T04:31:39.315Z,88.7
2023-10-21T04:36:45.703Z,88.2
2023-10-21T04:42:39.291Z,88.4
2023-10-21T04:47:45.047Z,88.4
2023-10-21T04:52:45.791Z,87.7
2023-10-21T04:58:39.299Z,87.3
2023-10-21T05:03:39.444Z,87.4
2023-10-21T05:08:45.676Z,88
2023-10-21T05:13:46.000Z,88
2023-10-21T05:19:39.267Z,87.8
2023-10-21T05:24:45.825Z,88.6
2023-10-21T05:29:45.892Z,88.4
2023-10-21T05:40:39.466Z,88.7
2023-10-21T05:45:45.925Z,88.3
2023-10-21T05:50:46.065Z,88
2023-10-21T05:56:39.110Z,88
2023-10-21T06:01:39.305Z,87.5
2023-10-21T06:06:45.856Z,87.1
2023-10-21T06:11:45.878Z,87.7
2023-10-21T06:16:45.976Z,86.8
2023-10-21T06:21:45.885Z,86.4
2023-10-21T06:27:39.038Z,87.5
2023-10-21T06:32:39.081Z,86.6
2023-10-21T06:37:39.106Z,86.2
2023-10-21T06:42:45.737Z,85.2
2023-10-21T06:47:45.764Z,84.2
2023-10-21T06:52:46.005Z,84.3
2023-10-21T06:58:39.687Z,84.5
2023-10-21T07:03:45.944Z,84.1
2023-10-21T07:08:46.015Z,82.9
2023-10-21T07:14:39.223Z,82.9
2023-10-21T07:19:45.737Z,83.2
2023-10-21T07:25:39.094Z,83.2
2023-10-21T07:30:39.403Z,83.9
2023-10-21T07:40:39.294Z,82.1
2023-10-21T07:50:46.184Z,80.2
2023-10-21T07:56:39.369Z,79.6
2023-10-21T08:01:45.713Z,78.7
2023-10-21T08:07:39.149Z,78.6
2023-10-21T08:12:39.324Z,77.6
2023-10-21T08:17:46.015Z,75.5
2023-10-21T08:23:39.312Z,73.3
2023-10-21T08:28:39.401Z,73
2023-10-21T08:33:39.805Z,72.8
2023-10-21T08:38:45.889Z,72.8
2023-10-21T08:44:39.307Z,74.7
2023-10-21T08:49:39.333Z,75.3
2023-10-21T08:54:46.019Z,75.5
2023-10-21T09:00:39.326Z,73.2
2023-10-21T09:05:39.344Z,71.2
2023-10-21T09:10:46.166Z,69.9
2023-10-21T09:16:39.356Z,70.5
2023-10-21T09:21:39.409Z,68.7
2023-10-21T09:26:45.689Z,70.6
2023-10-21T09:31:46.311Z,71
2023-10-21T09:37:39.096Z,70
2023-10-21T09:42:39.371Z,68.6
2023-10-21T09:47:46.015Z,68.5
2023-10-21T09:53:39.139Z,68.4
2023-10-21T09:58:39.147Z,68.3
2023-10-21T10:03:45.899Z,67.9
2023-10-21T10:08:46.180Z,64.5
2023-10-21T10:14:39.161Z,64.2
2023-10-21T10:19:39.325Z,61.7
2023-10-21T10:24:39.346Z,59.2
2023-10-21T10:29:39.371Z,59.3
2023-10-21T10:34:45.709Z,60.1
2023-10-21T10:39:45.759Z,60.2
2023-10-21T10:45:39.473Z,59.7
2023-10-21T10:50:45.738Z,58.6
2023-10-21T10:55:45.788Z,59.2
2023-10-21T11:01:39.389Z,57.3
2023-10-21T11:06:39.863Z,53.9
2023-10-21T11:11:50.592Z,56.3
2023-10-21T11:17:39.363Z,54.9
2023-10-21T11:22:39.387Z,53.3
2023-10-21T11:27:46.012Z,54.8
2023-10-21T11:33:39.447Z,53.8
2023-10-21T11:38:39.380Z,55.2
2023-10-21T11:43:46.389Z,56
2023-10-21T11:49:39.327Z,55.3
2023-10-21T11:54:39.641Z,56.8
2023-10-21T11:59:39.439Z,56.3
2023-10-21T12:04:45.995Z,54
2023-10-21T12:15:45.851Z,51.9
2023-10-21T12:21:39.273Z,52.5
2023-10-21T12:26:45.925Z,54.1
2023-10-21T12:31:45.991Z,54.7
2023-10-21T12:37:39.234Z,56.1
2023-10-21T12:43:39.165Z,56.5
2023-10-21T12:48:45.964Z,54.9
2023-10-21T12:53:45.972Z,55.3
2023-10-21T12:59:39.183Z,54.9
2023-10-21T13:04:46.131Z,54.8
2023-10-21T13:09:47.352Z,55.3
2023-10-21T13:15:39.187Z,54.3
2023-10-21T13:20:39.177Z,51.5
2023-10-21T13:25:45.944Z,51.1
2023-10-21T13:30:46.064Z,51.3
2023-10-21T13:35:46.128Z,51.1
2023-10-21T13:40:51.302Z,51.4
2023-10-21T13:46:39.344Z,52
2023-10-21T13:51:39.444Z,51.5
2023-10-21T13:56:39.402Z,53.1
2023-10-21T14:01:45.920Z,53.7
2023-10-21T14:06:46.119Z,53.8
2023-10-21T14:12:39.787Z,52.2
2023-10-21T14:17:46.036Z,52.7
2023-10-21T14:23:39.184Z,53.1
2023-10-21T14:28:39.214Z,53.9
2023-10-21T14:33:39.384Z,53.2
2023-10-21T14:38:45.986Z,52.7
2023-10-21T14:44:39.403Z,52.7
2023-10-21T14:49:44.922Z,51.5
2023-10-21T14:54:45.899Z,52.7
2023-10-21T14:59:45.986Z,53.4
2023-10-21T15:04:46.101Z,54.6
2023-10-21T15:10:40.478Z,54.1
2023-10-21T15:15:39.443Z,55.3
2023-10-21T15:20:45.816Z,54.1
2023-10-21T15:25:46.016Z,55.7
2023-10-21T15:30:46.096Z,56.5
2023-10-21T15:36:39.527Z,57.5
2023-10-21T15:41:46.311Z,57
2023-10-21T15:47:39.486Z,57.5
2023-10-21T15:52:39.488Z,57.8
2023-10-21T15:57:46.116Z,57.4
2023-10-21T16:03:39.378Z,57.8
2023-10-21T16:08:39.457Z,59.2
2023-10-21T16:13:39.426Z,59.4
2023-10-21T16:18:39.507Z,59.4
2023-10-21T16:23:46.159Z,61.7
2023-10-21T16:29:39.577Z,61.6
2023-10-21T16:34:46.179Z,63.3
2023-10-21T16:40:39.265Z,64.7
2023-10-21T16:45:39.652Z,64.4
2023-10-21T16:50:39.519Z,65.7
2023-10-21T16:55:45.902Z,64.9
2023-10-21T17:00:46.000Z,65.1
2023-10-21T17:05:46.125Z,66
2023-10-21T17:11:39.453Z,66.5
2023-10-21T17:16:40.223Z,67.1
2023-10-21T17:21:52.895Z,66.5
2023-10-21T17:27:39.537Z,65.9
2023-10-21T17:32:39.500Z,65.7
2023-10-21T17:37:39.574Z,66.3
2023-10-21T17:42:46.023Z,67.3
2023-10-21T17:47:46.288Z,67.2
2023-10-21T17:53:39.510Z,67.9
2023-10-21T17:58:39.419Z,67.5
2023-10-21T18:03:39.972Z,68.2
2023-10-21T18:08:54.429Z,68.7
2023-10-21T18:14:39.422Z,68.6
2023-10-21T18:25:39.324Z,69.7
2023-10-21T18:30:46.068Z,69
2023-10-21T18:35:46.115Z,70.5
2023-10-21T18:40:46.141Z,70.2
2023-10-21T18:46:39.255Z,69.7
2023-10-21T18:51:39.297Z,72.1
2023-10-21T18:56:39.254Z,71.3
2023-10-21T19:01:46.112Z,71.6
2023-10-21T19:07:39.237Z,73
2023-10-21T19:12:39.307Z,71.7
2023-10-21T19:17:39.354Z,71.2
2023-10-21T19:22:45.837Z,72
2023-10-21T19:27:46.491Z,72.6
2023-10-21T19:33:39.278Z,72.1
2023-10-21T19:38:46.084Z,72.9
2023-10-21T19:44:39.288Z,72.9
2023-10-21T19:49:46.047Z,72.7
2023-10-21T19:55:39.340Z,72.4
2023-10-21T20:00:39.520Z,72.3
2023-10-21T20:06:39.568Z,72.9
2023-10-21T20:11:39.442Z,73
2023-10-21T20:22:39.458Z,72.6
2023-10-21T20:27:40.094Z,72.5
2023-10-21T20:32:40.224Z,72
2023-10-21T20:37:46.031Z,72.5
2023-10-21T20:43:39.302Z,72
2023-10-21T20:48:44.906Z,72.4
2023-10-21T20:53:45.860Z,73.3
2023-10-21T20:58:46.040Z,72.8
2023-10-21T21:04:39.452Z,72.5
2023-10-21T21:09:39.803Z,73.7
2023-10-21T21:14:45.884Z,72.6
2023-10-21T21:19:46.171Z,72.5
2023-10-21T21:25:39.205Z,72.4
2023-10-21T21:30:39.544Z,72.6
2023-10-21T21:35:46.039Z,72.4
2023-10-21T21:41:39.478Z,72.3
2023-10-21T21:46:46.089Z,72.3
2023-10-21T21:51:46.226Z,72.6
2023-10-21T21:56:46.210Z,73.3
2023-10-21T22:02:39.450Z,72.1
2023-10-21T22:07:39.489Z,72.4
2023-10-21T22:12:46.041Z,72.6
2023-10-21T22:17:46.117Z,71.7
2023-10-21T22:23:54.445Z,71.6
2023-10-21T22:28:39.496Z,71.5
2023-10-21T22:33:39.584Z,70.8
2023-10-21T22:38:40.282Z,70.1
2023-10-21T22:43:46.391Z,69.8
2023-10-21T22:49:39.242Z,68.7
2023-10-21T22:54:39.306Z,68.9
2023-10-21T22:59:39.276Z,67.8
2023-10-21T23:04:39.758Z,67.8
2023-10-21T23:09:45.900Z,67.6
2023-10-21T23:15:39.540Z,66.6
2023-10-21T23:20:45.874Z,68.1
2023-10-21T23:26:39.526Z,68.9
2023-10-21T23:31:45.843Z,69.5
2023-10-21T23:36:45.872Z,69.6
2023-10-21T23:42:39.476Z,70.2
2023-10-21T23:47:45.942Z,70.6
2023-10-21T23:52:47.525Z,70.4
2023-10-21T23:58:39.448Z,70.1
